createdAt,value
2022-10-03T00:00:10.947Z,15.96
2022-10-03T00:02:47.735Z,15.95
2022-10-03T00:05:35.334Z,15.90
2022-10-03T00:08:50.301Z,15.81
2022-10-03T00:11:30.818Z,15.79
2022-10-03T00:14:10.783Z,15.80
2022-10-03T00:17:09.735Z,15.82
2022-10-03T00:19:52.195Z,15.82
2022-10-03T00:22:32.284Z,15.74
2022-10-03T00:25:21.949Z,15.70
2022-10-03T00:28:17.174Z,15.65
2022-10-03T00:31:01.563Z,15.61
2022-10-03T00:33:37.619Z,15.63
2022-10-03T00:36:19.585Z,15.70
2022-10-03T00:39:13.718Z,15.74
2022-10-03T00:41:53.794Z,15.73
2022-10-03T00:44:38.147Z,15.79
2022-10-03T00:47:45.554Z,15.85
2022-10-03T00:50:25.391Z,15.89
2022-10-03T00:53:16.961Z,15.84
2022-10-03T00:56:26.793Z,15.72
2022-10-03T00:59:18.251Z,15.68
2022-10-03T01:01:48.818Z,15.71
2022-10-03T01:04:28.597Z,15.77
2022-10-03T01:07:15.656Z,15.86
2022-10-03T01:10:17.421Z,15.93
2022-10-03T01:13:07.224Z,15.89
2022-10-03T01:16:06.654Z,15.88
2022-10-03T01:18:52.970Z,15.83
2022-10-03T01:21:33.099Z,15.69
2022-10-03T01:24:38.670Z,15.79
2022-10-03T01:27:17.440Z,15.77
2022-10-03T01:30:04.229Z,15.73
2022-10-03T01:32:41.343Z,15.76
2022-10-03T01:35:19.410Z,15.77
2022-10-03T01:38:24.903Z,15.82
2022-10-03T01:41:11.564Z,15.89
2022-10-03T01:44:00.734Z,15.90
2022-10-03T01:46:53.688Z,15.98
2022-10-03T01:49:39.097Z,15.99
2022-10-03T01:52:31.509Z,16.05
2022-10-03T01:55:12.045Z,16.11
2022-10-03T01:57:49.605Z,16.13
2022-10-03T02:00:25.205Z,16.18
2022-10-03T02:03:10.766Z,16.12
2022-10-03T02:05:48.298Z,16.20
2022-10-03T02:08:24.127Z,16.18
2022-10-03T02:10:59.627Z,16.18
2022-10-03T02:14:06.493Z,16.18
2022-10-03T02:16:57.441Z,16.18
2022-10-03T02:19:36.508Z,16.20
2022-10-03T02:22:16.754Z,16.20
2022-10-03T02:25:10.973Z,16.26
2022-10-03T02:27:58.892Z,16.30
2022-10-03T02:30:56.071Z,16.37
2022-10-03T02:33:44.605Z,16.40
2022-10-03T02:36:48.587Z,16.41
2022-10-03T02:39:41.096Z,16.37
2022-10-03T02:42:18.395Z,16.32
2022-10-03T02:45:01.860Z,16.27
2022-10-03T02:47:51.270Z,16.22
2022-10-03T02:50:51.349Z,16.14
2022-10-03T02:53:49.637Z,16.05
2022-10-03T02:56:42.780Z,16.00
2022-10-03T02:59:14.422Z,16.00
2022-10-03T03:02:02.837Z,15.97
2022-10-03T03:04:51.963Z,15.96
2022-10-03T03:07:59.346Z,15.97
2022-10-03T03:10:30.246Z,15.93
2022-10-03T03:13:38.015Z,15.93
2022-10-03T03:16:19.537Z,15.91
2022-10-03T03:18:54.701Z,15.90
2022-10-03T03:21:35.580Z,15.80
2022-10-03T03:24:28.118Z,15.81
2022-10-03T03:27:19.606Z,15.64
2022-10-03T03:30:16.217Z,15.57
2022-10-03T03:33:10.813Z,15.50
2022-10-03T03:35:59.437Z,15.44
2022-10-03T03:38:33.458Z,15.49
2022-10-03T03:41:45.451Z,15.49
2022-10-03T03:44:13.541Z,15.46
2022-10-03T03:46:50.982Z,15.45
2022-10-03T03:50:06.626Z,15.42
2022-10-03T03:53:00.519Z,15.33
2022-10-03T03:55:28.557Z,15.15
2022-10-03T03:58:09.591Z,15.05
2022-10-03T04:01:05.649Z,14.92
2022-10-03T04:04:12.498Z,14.91
2022-10-03T04:07:20.855Z,14.94
2022-10-03T04:10:24.165Z,14.87
2022-10-03T04:13:12.947Z,14.80
2022-10-03T04:15:55.892Z,14.80
2022-10-03T04:18:45.914Z,14.76
2022-10-03T04:21:32.210Z,14.78
2022-10-03T04:24:21.963Z,14.80
2022-10-03T04:27:17.426Z,14.84
2022-10-03T04:30:30.792Z,14.86
2022-10-03T04:33:29.654Z,14.86
2022-10-03T04:36:12.997Z,14.89
2022-10-03T04:39:04.663Z,14.80
2022-10-03T04:41:43.353Z,14.73
2022-10-03T04:44:18.710Z,14.72
2022-10-03T04:47:06.590Z,14.75
2022-10-03T04:50:02.188Z,14.73
2022-10-03T04:52:58.819Z,14.74
2022-10-03T04:55:35.409Z,14.67
2022-10-03T04:58:38.077Z,14.58
2022-10-03T05:01:18.381Z,14.36
2022-10-03T05:04:07.019Z,14.41
2022-10-03T05:07:12.997Z,14.36
2022-10-03T05:09:41.263Z,14.34
2022-10-03T05:12:48.178Z,14.32
2022-10-03T05:15:41.921Z,14.30
2022-10-03T05:18:48.362Z,14.30
2022-10-03T05:21:33.054Z,14.28
2022-10-03T05:24:31.315Z,14.22
2022-10-03T05:27:35.742Z,14.27
2022-10-03T05:30:19.934Z,14.38
2022-10-03T05:33:06.277Z,14.45
2022-10-03T05:35:48.761Z,14.45
2022-10-03T05:38:16.918Z,14.47
2022-10-03T05:41:02.188Z,14.50
2022-10-03T05:44:04.195Z,14.50
2022-10-03T05:46:58.421Z,14.51
2022-10-03T05:50:20.715Z,14.55
2022-10-03T05:53:03.480Z,14.62
2022-10-03T05:55:49.737Z,14.67
2022-10-03T05:58:38.890Z,14.80
2022-10-03T06:01:24.325Z,14.89
2022-10-03T06:04:53.520Z,14.70
2022-10-03T06:07:40.290Z,14.52
2022-10-03T06:10:36.255Z,14.36
2022-10-03T06:13:24.830Z,14.29
2022-10-03T06:16:30.271Z,14.44
2022-10-03T06:19:32.136Z,14.55
2022-10-03T06:22:24.843Z,14.60
2022-10-03T06:25:25.437Z,14.71
2022-10-03T06:28:29.747Z,14.86
2022-10-03T06:31:22.611Z,14.95
2022-10-03T06:33:53.651Z,15.08
2022-10-03T06:36:49.399Z,15.22
2022-10-03T06:39:45.458Z,15.33
2022-10-03T06:42:34.961Z,15.46
2022-10-03T06:45:22.516Z,15.61
2022-10-03T06:48:04.770Z,15.66
2022-10-03T06:50:47.056Z,15.78
2022-10-03T06:53:30.036Z,15.88
2022-10-03T06:56:38.427Z,16.06
2022-10-03T06:59:31.272Z,16.22
2022-10-03T07:02:11.833Z,16.35
2022-10-03T07:05:07.480Z,16.43
2022-10-03T07:08:03.124Z,16.50
2022-10-03T07:10:52.246Z,16.66
2022-10-03T07:13:57.186Z,16.90
2022-10-03T07:16:46.646Z,17.10
2022-10-03T07:19:32.999Z,17.42
2022-10-03T07:22:39.075Z,17.78
2022-10-03T07:25:10.169Z,18.18
2022-10-03T07:27:56.400Z,18.58
2022-10-03T07:30:27.827Z,18.92
2022-10-03T07:33:38.016Z,19.42
2022-10-03T07:36:59.690Z,19.99
2022-10-03T07:40:05.861Z,20.42
2022-10-03T07:43:11.508Z,20.39
2022-10-03T07:46:05.309Z,20.79
2022-10-03T07:48:36.220Z,20.81
2022-10-03T07:51:17.264Z,21.00
2022-10-03T07:54:09.322Z,21.06
2022-10-03T07:57:11.092Z,21.09
2022-10-03T07:59:45.220Z,20.95
2022-10-03T08:02:34.323Z,21.20
2022-10-03T08:05:28.479Z,21.52
2022-10-03T08:08:09.515Z,21.61
2022-10-03T08:10:56.166Z,21.83
2022-10-03T08:13:50.175Z,21.86
2022-10-03T08:16:21.071Z,21.88
2022-10-03T08:19:22.112Z,22.07
2022-10-03T08:22:14.843Z,22.11
2022-10-03T08:25:12.355Z,22.14
2022-10-03T08:28:03.962Z,21.99
2022-10-03T08:31:01.115Z,22.07
2022-10-03T08:33:56.277Z,22.09
2022-10-03T08:36:35.038Z,22.04
2022-10-03T08:39:45.682Z,22.13
2022-10-03T08:42:46.183Z,22.18
2022-10-03T08:45:32.967Z,22.04
2022-10-03T08:48:31.778Z,21.97
2022-10-03T08:51:05.447Z,22.04
2022-10-03T08:53:51.992Z,22.00
2022-10-03T08:56:46.535Z,22.12
2022-10-03T08:59:17.751Z,22.11
2022-10-03T09:02:00.799Z,22.07
2022-10-03T09:04:53.802Z,22.14
2022-10-03T09:07:55.500Z,22.21
2022-10-03T09:10:46.774Z,22.20
2022-10-03T09:13:37.087Z,22.11
2022-10-03T09:16:28.772Z,22.19
2022-10-03T09:19:00.174Z,22.09
2022-10-03T09:22:12.695Z,22.14
2022-10-03T09:24:46.987Z,22.00
